This is the latest recevied weather packets stored in our database for station/object N0QV. If no packets are shown the sender has not sent any weather packets the latest 10 day(s).
| Time | Temp. | Humidity | Pressure | Rain* | Wind** | Luminosity | Snow |
|---|---|---|---|---|---|---|---|
| 1788274690 | 27.22° C | 67% | 1015 hPa | 0 mm | - | 348 W/m² | - |
| 1788274389 | 26.67° C | 69% | 1015 hPa | 0 mm | - | 330 W/m² | - |
| 1788274085 | 27.22° C | 68% | 1015.2 hPa | 0 mm | - | 390 W/m² | - |
| 1788273781 | 26.67° C | 69% | 1015.1 hPa | 0 mm | - | 212 W/m² | - |
| 1788273476 | 26.11° C | 70% | 1015.2 hPa | 0 mm | - | 111 W/m² | - |
| 1788273172 | 25.56° C | 73% | 1015.2 hPa | 0 mm | - | 211 W/m² | - |
| 1788272868 | 25.56° C | 72% | 1014.9 hPa | 0 mm | - | 155 W/m² | - |
| 1788272567 | 26.11° C | 72% | 1015 hPa | 0 mm | - | 195 W/m² | - |
| 1788272263 | 26.11° C | 72% | 1015.4 hPa | 0 mm | - | 117 W/m² | - |
| 1788271963 | 25.56° C | 74% | 1015.2 hPa | 0 mm | - | 235 W/m² | - |
| 1788271662 | 25° C | 76% | 1015.3 hPa | 0 mm | - | 206 W/m² | - |
| 1788271360 | 25° C | 77% | 1015.2 hPa | 0 mm | - | 242 W/m² | - |
| 1788271056 | 23.89° C | 78% | 1015.4 hPa | 0 mm | - | 197 W/m² | - |
| 1788270756 | 23.33° C | 81% | 1015.6 hPa | 0 mm | - | 155 W/m² | - |
| 1788270452 | 23.33° C | 81% | 1015.2 hPa | 0 mm | - | 127 W/m² | - |
| 1788270151 | 23.89° C | 80% | 1015.2 hPa | 0 mm | - | 136 W/m² | - |
| 1788269851 | 22.78° C | 81% | 1015.4 hPa | 0 mm | - | 117 W/m² | - |
| 1788269550 | 22.22° C | 83% | 1015.6 hPa | 0 mm | - | 106 W/m² | - |
| 1788269249 | 22.22° C | 83% | 1015.6 hPa | 0 mm | - | 93 W/m² | - |
| 1788268952 | 20.56° C | 88% | 1015.7 hPa | 0 mm | - | 91 W/m² | - |
| 1788268639 | 20° C | 91% | 1015.5 hPa | 0 mm | - | 84 W/m² | - |
| 1788268338 | 18.89° C | 93% | 1015.5 hPa | 0 mm | - | 67 W/m² | - |
| 1788268034 | 18.33° C | 93% | 1015.7 hPa | 0 mm | - | 42 W/m² | - |
| 1788267733 | 17.78° C | 94% | 1015.5 hPa | 0 mm | - | 46 W/m² | - |
| 1788267431 | 17.78° C | 94% | 1015.1 hPa | 0 mm | - | 41 W/m² | - |
* Rain latest hour (hover to see other rain measurements)
** Current wind speed in m/s (hover to see current wind gust speed)